createdAt,value
2023-01-01T00:00:44.771Z,61.80
2023-01-01T00:03:17.947Z,62.10
2023-01-01T00:05:44.949Z,61.80
2023-01-01T00:08:11.908Z,61.30
2023-01-01T00:10:38.884Z,61.40
2023-01-01T00:13:05.694Z,61.20
2023-01-01T00:15:33.620Z,61.60
2023-01-01T00:18:00.605Z,60.80
2023-01-01T00:20:33.175Z,61.00
2023-01-01T00:23:02.282Z,61.50
2023-01-01T00:25:34.823Z,61.40
2023-01-01T00:28:02.193Z,61.20
2023-01-01T01:09:41.117Z,61.00
2023-01-01T01:12:18.743Z,61.20
2023-01-01T01:14:58.768Z,60.80
2023-01-01T01:17:26.006Z,61.00
2023-01-01T01:19:56.245Z,60.50
2023-01-01T01:22:28.218Z,61.00
2023-01-01T01:24:56.910Z,61.10
2023-01-01T01:27:24.773Z,61.70
2023-01-01T01:29:51.898Z,62.00
2023-01-01T01:32:23.349Z,62.50
2023-01-01T01:34:53.993Z,62.70
2023-01-01T01:37:21.224Z,62.70
2023-01-01T01:39:53.566Z,62.70
2023-01-01T01:42:21.469Z,63.00
2023-01-01T01:45:04.388Z,62.50
2023-01-01T01:47:40.041Z,62.20
2023-01-01T01:50:16.927Z,62.70
2023-01-01T01:53:07.926Z,62.30
2023-01-01T01:55:39.856Z,62.30
2023-01-01T01:58:10.900Z,62.40
2023-01-01T02:00:39.335Z,62.40
2023-01-01T02:03:11.407Z,62.00
2023-01-01T02:05:40.374Z,62.20
2023-01-01T02:08:08.805Z,62.00
2023-01-01T02:10:36.143Z,61.90
2023-01-01T02:13:03.470Z,62.10
2023-01-01T02:15:44.751Z,62.20
2023-01-01T02:18:17.407Z,62.10
2023-01-01T02:21:02.203Z,62.10
2023-01-01T02:23:43.371Z,61.90
2023-01-01T02:26:39.043Z,61.80
2023-01-01T02:29:28.835Z,62.10
2023-01-01T02:32:08.796Z,62.30
2023-01-01T02:34:43.886Z,62.30
2023-01-01T02:37:14.513Z,61.90
2023-01-01T02:39:47.670Z,62.10
2023-01-01T02:42:16.331Z,62.00
2023-01-01T02:44:47.429Z,62.30
2023-01-01T02:47:18.894Z,62.10
2023-01-01T02:50:04.641Z,62.30
2023-01-01T02:52:55.082Z,62.00
2023-01-01T02:55:48.140Z,61.90
2023-01-01T02:58:45.944Z,62.10
2023-01-01T03:01:24.437Z,61.90
2023-01-01T03:04:25.147Z,62.10
2023-01-01T03:06:55.944Z,61.70
2023-01-01T03:09:41.050Z,61.40
2023-01-01T03:12:39.769Z,61.40
2023-01-01T03:15:35.660Z,61.40
2023-01-01T03:18:08.757Z,61.20
2023-01-01T03:20:42.412Z,61.40
2023-01-01T03:23:25.580Z,61.50
2023-01-01T03:25:57.526Z,61.30
2023-01-01T03:28:28.794Z,61.60
2023-01-01T03:30:59.790Z,61.10
2023-01-01T03:33:45.184Z,61.20
2023-01-01T03:36:21.892Z,61.60
2023-01-01T03:39:02.246Z,61.40
2023-01-01T03:41:44.655Z,61.70
2023-01-01T03:44:35.314Z,61.80
2023-01-01T03:47:04.161Z,61.40
2023-01-01T03:49:31.271Z,61.50
2023-01-01T03:52:43.187Z,61.60
2023-01-01T03:55:37.349Z,61.60
2023-01-01T03:58:18.954Z,61.70
2023-01-01T04:01:04.292Z,61.90
2023-01-01T04:03:39.771Z,63.60
2023-01-01T04:06:07.936Z,65.70
2023-01-01T04:08:46.758Z,68.30
2023-01-01T04:11:40.252Z,70.60
2023-01-01T04:14:09.881Z,72.20
2023-01-01T04:16:37.159Z,73.20
2023-01-01T04:19:10.146Z,73.60
2023-01-01T04:21:39.506Z,74.00
2023-01-01T04:24:10.212Z,74.50
2023-01-01T04:26:37.264Z,75.20
2023-01-01T04:29:04.383Z,75.80
2023-01-01T04:31:31.376Z,76.20
2023-01-01T04:34:01.541Z,76.40
2023-01-01T04:36:28.486Z,76.50
2023-01-01T04:38:57.724Z,76.50
2023-01-01T04:41:24.748Z,76.30
2023-01-01T04:43:51.842Z,76.30
2023-01-01T04:46:20.876Z,76.30
2023-01-01T04:48:48.377Z,76.00
2023-01-01T04:51:17.729Z,75.70
2023-01-01T04:53:45.199Z,75.50
2023-01-01T04:56:18.822Z,75.40
2023-01-01T04:58:47.191Z,74.80
2023-01-01T05:01:23.501Z,74.30
2023-01-01T05:03:56.073Z,73.40
2023-01-01T05:06:24.243Z,72.70
2023-01-01T05:08:57.477Z,72.40
2023-01-01T05:11:27.911Z,72.20
2023-01-01T05:13:58.899Z,71.60
2023-01-01T05:16:29.867Z,71.50
2023-01-01T05:18:57.045Z,71.70
2023-01-01T05:21:36.240Z,71.60
2023-01-01T05:24:11.423Z,71.80
2023-01-01T05:26:43.913Z,71.60
2023-01-01T05:29:17.646Z,70.80
2023-01-01T05:31:46.372Z,70.50
2023-01-01T05:34:13.629Z,69.80
2023-01-01T05:36:43.243Z,69.20
2023-01-01T05:39:18.380Z,67.70
2023-01-01T05:41:46.439Z,67.70
2023-01-01T05:44:20.831Z,67.60
2023-01-01T05:46:48.052Z,66.50
2023-01-01T05:49:25.061Z,66.70
2023-01-01T05:51:52.205Z,67.00
2023-01-01T05:54:26.229Z,66.90
2023-01-01T05:57:05.363Z,66.90
2023-01-01T05:59:39.093Z,66.70
2023-01-01T06:02:19.968Z,66.40
2023-01-01T06:04:47.679Z,66.20
2023-01-01T06:07:15.921Z,65.90
2023-01-01T06:09:45.645Z,65.90
2023-01-01T06:12:15.288Z,65.60
2023-01-01T06:14:42.699Z,65.20
2023-01-01T06:17:09.777Z,65.40
2023-01-01T06:19:39.834Z,65.10
2023-01-01T06:22:07.164Z,64.90
2023-01-01T06:24:38.953Z,64.60
2023-01-01T06:27:07.708Z,64.40
2023-01-01T06:29:34.957Z,64.10
2023-01-01T06:32:16.664Z,63.90
2023-01-01T06:34:53.116Z,64.10
2023-01-01T06:37:20.421Z,63.70
2023-01-01T06:39:51.036Z,63.40
2023-01-01T06:42:44.330Z,63.70
2023-01-01T06:45:13.443Z,64.10
2023-01-01T06:47:50.541Z,64.00
2023-01-01T06:50:31.550Z,63.60
2023-01-01T06:53:31.538Z,63.60
2023-01-01T06:55:59.073Z,63.80
2023-01-01T06:58:26.156Z,63.60
2023-01-01T07:00:53.408Z,64.20
2023-01-01T07:03:22.983Z,64.00
2023-01-01T07:05:52.174Z,63.90
2023-01-01T07:08:19.303Z,64.20
2023-01-01T07:10:46.372Z,64.70
2023-01-01T07:13:18.063Z,64.40
2023-01-01T07:15:49.000Z,64.70
2023-01-01T07:18:22.833Z,64.80
2023-01-01T07:20:55.564Z,64.70
2023-01-01T07:23:25.968Z,64.80
2023-01-01T07:26:11.283Z,65.10
2023-01-01T07:28:41.753Z,65.00
2023-01-01T07:31:10.997Z,65.30
2023-01-01T07:33:38.226Z,65.30
2023-01-01T07:36:08.628Z,65.60
2023-01-01T07:38:37.222Z,65.80
2023-01-01T07:41:04.408Z,65.80
2023-01-01T07:43:33.023Z,65.90
2023-01-01T07:46:06.430Z,65.90
2023-01-01T07:48:40.219Z,65.90
2023-01-01T07:51:07.816Z,66.10
2023-01-01T07:53:54.275Z,66.20
2023-01-01T07:56:21.359Z,66.20
2023-01-01T07:58:48.404Z,66.30
2023-01-01T08:01:17.693Z,66.20
2023-01-01T08:03:55.237Z,66.20
2023-01-01T08:06:25.928Z,66.10
2023-01-01T08:08:53.176Z,65.90
2023-01-01T08:11:20.178Z,66.00
2023-01-01T08:13:55.307Z,66.00
2023-01-01T08:16:31.578Z,66.20
2023-01-01T08:18:58.808Z,66.40
2023-01-01T08:21:33.246Z,66.70
2023-01-01T08:24:03.581Z,66.80
2023-01-01T08:26:40.658Z,66.90
2023-01-01T08:29:08.065Z,67.00
2023-01-01T08:31:38.666Z,67.10
2023-01-01T08:34:05.882Z,67.30
2023-01-01T08:36:38.158Z,67.50
2023-01-01T08:39:14.162Z,67.50
2023-01-01T08:41:56.445Z,67.50
2023-01-01T08:44:23.652Z,67.70
2023-01-01T08:46:55.667Z,67.90
2023-01-01T08:49:22.922Z,67.90
2023-01-01T08:51:50.482Z,67.90
2023-01-01T08:54:25.331Z,68.10
2023-01-01T08:56:52.473Z,68.10
2023-01-01T08:59:22.811Z,68.20
2023-01-01T09:01:52.201Z,68.20
2023-01-01T09:04:19.655Z,68.20
2023-01-01T09:06:46.818Z,68.10
2023-01-01T09:09:15.220Z,68.30
2023-01-01T09:11:51.322Z,68.40
2023-01-01T09:14:24.374Z,68.30
2023-01-01T09:16:57.969Z,68.30
2023-01-01T09:19:25.266Z,68.30
2023-01-01T09:21:54.693Z,68.40
2023-01-01T09:24:22.018Z,68.40
2023-01-01T09:26:51.004Z,68.40
2023-01-01T09:29:31.077Z,68.60
2023-01-01T09:32:04.543Z,68.70
2023-01-01T09:34:33.954Z,68.60
2023-01-01T09:37:01.313Z,68.70
2023-01-01T09:39:30.090Z,68.40
2023-01-01T09:42:08.687Z,68.20
2023-01-01T09:44:57.616Z,68.30
2023-01-01T09:47:41.037Z,68.00
2023-01-01T09:50:36.672Z,67.90
2023-01-01T09:53:31.259Z,67.70
2023-01-01T09:56:03.325Z,67.40
2023-01-01T09:58:38.489Z,67.20
2023-01-01T10:01:34.579Z,67.40
2023-01-01T10:04:25.216Z,67.50
2023-01-01T10:07:25.898Z,67.80
2023-01-01T10:10:33.619Z,68.00
2023-01-01T10:13:41.932Z,68.30
2023-01-01T10:16:39.711Z,68.60
2023-01-01T10:19:35.993Z,68.70
2023-01-01T10:22:48.319Z,68.90
2023-01-01T10:25:31.142Z,69.10
2023-01-01T10:28:11.787Z,69.30
2023-01-01T10:30:47.222Z,69.20
2023-01-01T10:33:14.994Z,69.00
2023-01-01T10:35:47.632Z,69.10
2023-01-01T10:38:28.945Z,68.80
2023-01-01T10:41:05.983Z,68.70
2023-01-01T10:43:52.140Z,69.00
2023-01-01T10:46:35.621Z,68.70
2023-01-01T10:52:46.817Z,68.90
2023-01-01T10:55:18.393Z,69.10
2023-01-01T10:57:52.337Z,69.50
2023-01-01T11:00:29.827Z,69.60
2023-01-01T11:03:30.070Z,69.70
2023-01-01T11:06:49.618Z,69.90
2023-01-01T11:10:01.668Z,69.90
2023-01-01T11:13:05.268Z,69.90
2023-01-01T11:15:50.187Z,69.90
2023-01-01T11:18:44.794Z,70.20
2023-01-01T11:21:22.375Z,70.30
2023-01-01T11:24:26.158Z,70.30
2023-01-01T11:27:27.611Z,70.40
2023-01-01T11:30:21.598Z,70.50
2023-01-01T11:32:55.449Z,70.70
2023-01-01T11:35:31.994Z,70.80
2023-01-01T11:38:06.515Z,70.90
2023-01-01T11:40:38.889Z,71.00
2023-01-01T11:43:08.468Z,70.90
2023-01-01T11:45:57.193Z,71.10
2023-01-01T11:48:38.164Z,71.20
2023-01-01T11:51:21.284Z,71.20
2023-01-01T11:53:51.871Z,71.20
2023-01-01T11:56:23.529Z,71.40
2023-01-01T11:59:00.209Z,71.40
2023-01-01T12:01:47.150Z,71.50
2023-01-01T12:04:58.824Z,71.70
2023-01-01T12:07:36.590Z,71.50
2023-01-01T12:10:10.203Z,71.40
2023-01-01T12:13:07.240Z,71.60
2023-01-01T12:15:51.013Z,71.20
2023-01-01T12:18:27.116Z,70.80
2023-01-01T12:21:26.433Z,70.50
2023-01-01T12:24:03.784Z,70.30
2023-01-01T12:27:14.793Z,70.20
2023-01-01T12:30:33.956Z,69.70
2023-01-01T12:33:21.395Z,69.40
2023-01-01T12:36:52.655Z,69.50
2023-01-01T12:43:12.029Z,68.80
2023-01-01T14:59:45.462Z,70.00
2023-01-01T15:02:34.179Z,70.10
2023-01-01T15:05:53.804Z,70.20
2023-01-01T15:09:12.392Z,70.30
2023-01-01T15:12:00.375Z,70.40
2023-01-01T15:14:54.308Z,70.40
2023-01-01T15:17:24.869Z,70.40
2023-01-01T15:20:21.291Z,70.50
2023-01-01T15:22:49.181Z,70.80
2023-01-01T15:25:18.397Z,70.70
2023-01-01T15:27:54.381Z,70.90
2023-01-01T15:30:35.200Z,70.90
2023-01-01T15:33:08.595Z,71.00
2023-01-01T15:35:38.286Z,71.10
2023-01-01T15:38:20.708Z,71.20
2023-01-01T15:40:52.986Z,71.30
2023-01-01T15:43:26.213Z,71.30
2023-01-01T15:46:11.162Z,71.50
2023-01-01T15:48:51.206Z,71.50
2023-01-01T15:51:26.716Z,71.60
2023-01-01T15:54:01.558Z,71.70
2023-01-01T15:56:32.069Z,71.80
2023-01-01T15:59:09.231Z,71.80
2023-01-01T16:01:39.716Z,71.90
2023-01-01T16:04:22.075Z,71.90
2023-01-01T16:06:55.558Z,72.10
2023-01-01T16:09:22.599Z,72.20
2023-01-01T16:11:54.974Z,72.30
2023-01-01T16:14:24.962Z,72.30
2023-01-01T16:16:57.961Z,72.30
2023-01-01T16:19:25.413Z,72.40
2023-01-01T16:21:52.325Z,72.50
2023-01-01T16:24:23.556Z,72.60
2023-01-01T16:26:53.186Z,72.60
2023-01-01T16:29:20.224Z,72.70
2023-01-01T16:31:52.990Z,72.70
2023-01-01T16:34:19.922Z,72.70
2023-01-01T16:36:48.931Z,72.70
2023-01-01T16:39:16.059Z,72.70
2023-01-01T16:41:52.368Z,72.80
2023-01-01T16:44:19.416Z,72.80
2023-01-01T16:46:46.758Z,72.80
2023-01-01T16:49:13.644Z,72.80
2023-01-01T16:51:44.361Z,72.80
2023-01-01T16:54:12.016Z,72.90
2023-01-01T16:56:39.366Z,72.80
2023-01-01T16:59:06.901Z,72.80
2023-01-01T17:01:36.607Z,72.90
2023-01-01T17:04:04.484Z,72.80
2023-01-01T17:06:32.032Z,72.80
2023-01-01T17:09:00.618Z,72.80
2023-01-01T17:11:27.731Z,72.90
2023-01-01T17:13:54.754Z,72.90
2023-01-01T17:16:27.908Z,73.00
2023-01-01T17:31:12.550Z,73.30
2023-01-01T17:33:40.665Z,73.40
2023-01-01T17:36:09.591Z,73.60
2023-01-01T17:38:37.635Z,73.70
2023-01-01T17:41:13.907Z,73.90
2023-01-01T17:43:43.440Z,74.00
2023-01-01T17:46:33.998Z,74.00
2023-01-01T17:49:02.712Z,74.00
2023-01-01T17:51:30.353Z,74.10
2023-01-01T17:53:57.677Z,74.20
2023-01-01T17:56:25.096Z,74.50
2023-01-01T17:58:53.894Z,74.70
2023-01-01T18:01:37.032Z,74.90
2023-01-01T18:04:07.966Z,75.10
2023-01-01T18:06:42.377Z,75.10
2023-01-01T18:09:26.846Z,75.20
2023-01-01T18:11:53.860Z,75.40
2023-01-01T18:14:25.059Z,75.50
2023-01-01T18:16:52.148Z,75.70
2023-01-01T18:19:19.951Z,75.80
2023-01-01T18:24:27.857Z,76.00
2023-01-01T18:26:54.809Z,76.20
2023-01-01T18:29:22.037Z,76.30
2023-01-01T18:31:53.878Z,76.40
2023-01-01T18:34:20.839Z,76.60
2023-01-01T18:36:47.876Z,76.90
2023-01-01T18:39:36.085Z,76.90
2023-01-01T18:42:21.215Z,77.00
2023-01-01T18:44:48.383Z,77.10
2023-01-01T18:47:17.558Z,77.30
2023-01-01T18:49:58.507Z,77.20
2023-01-01T18:52:31.727Z,77.50
2023-01-01T18:55:03.296Z,77.60
2023-01-01T18:57:31.433Z,77.70
2023-01-01T19:00:02.265Z,77.80
2023-01-01T19:02:44.570Z,77.90
2023-01-01T19:05:27.107Z,78.00
2023-01-01T19:08:07.120Z,78.10
2023-01-01T19:10:44.972Z,78.00
2023-01-01T19:13:22.073Z,78.30
2023-01-01T19:15:54.412Z,78.40
2023-01-01T19:18:24.530Z,78.60
2023-01-01T19:21:12.736Z,78.80
2023-01-01T19:23:56.210Z,78.90
2023-01-01T19:26:28.953Z,79.10
2023-01-01T19:29:09.956Z,79.30
2023-01-01T19:31:37.005Z,79.60
2023-01-01T19:34:04.004Z,79.80
2023-01-01T19:36:31.074Z,79.90
2023-01-01T19:38:58.143Z,79.80
2023-01-01T19:41:25.147Z,79.90
2023-01-01T19:43:52.032Z,80.00
2023-01-01T19:46:18.985Z,80.00
2023-01-01T19:48:46.217Z,80.10
2023-01-01T19:51:13.708Z,80.20
2023-01-01T19:53:43.179Z,80.30
2023-01-01T19:56:10.247Z,80.40
2023-01-01T19:58:37.256Z,80.50
2023-01-01T20:01:04.331Z,80.50
2023-01-01T20:06:18.413Z,80.70
2023-01-01T20:08:45.470Z,80.80
2023-01-01T20:11:12.329Z,80.90
2023-01-01T20:13:39.380Z,81.00
2023-01-01T20:16:06.765Z,81.00
2023-01-01T20:18:33.970Z,81.00
2023-01-01T20:21:25.512Z,81.10
2023-01-01T20:23:54.375Z,81.20
2023-01-01T20:26:21.295Z,81.20
2023-01-01T20:29:06.808Z,81.30
2023-01-01T20:31:37.359Z,81.40
2023-01-01T20:34:04.867Z,81.40
2023-01-01T20:36:51.244Z,81.50
2023-01-01T20:39:19.066Z,81.50
2023-01-01T20:41:45.945Z,81.60
2023-01-01T20:44:12.878Z,81.70
2023-01-01T20:46:41.132Z,81.80
2023-01-01T20:49:08.840Z,81.90
2023-01-01T20:51:35.852Z,82.00
2023-01-01T20:54:02.967Z,82.00
2023-01-01T20:56:30.228Z,82.10
2023-01-01T20:59:00.438Z,82.10
2023-01-01T21:01:29.870Z,82.20
2023-01-01T21:03:57.297Z,82.30
2023-01-01T21:06:24.995Z,82.40
2023-01-01T21:08:52.616Z,82.50
2023-01-01T21:11:19.540Z,82.60
2023-01-01T21:13:49.750Z,82.80
2023-01-01T21:16:28.980Z,83.00
2023-01-01T21:18:57.291Z,83.20
2023-01-01T21:22:02.283Z,83.30
2023-01-01T21:24:35.374Z,83.30
2023-01-01T21:27:15.530Z,83.30
2023-01-01T21:29:48.361Z,83.20
2023-01-01T21:32:37.321Z,83.20
2023-01-01T21:35:18.198Z,83.20
2023-01-01T21:37:48.205Z,83.10
2023-01-01T21:40:34.536Z,83.00
2023-01-01T21:43:34.945Z,83.00
2023-01-01T21:46:08.108Z,83.00
2023-01-01T21:48:40.050Z,83.00
2023-01-01T21:51:21.439Z,82.90
2023-01-01T21:53:48.499Z,83.00
2023-01-01T21:56:28.303Z,82.90
2023-01-01T21:59:20.000Z,82.90
2023-01-01T22:01:49.700Z,83.00
2023-01-01T22:04:16.679Z,83.00
2023-01-01T22:06:51.649Z,83.00
2023-01-01T22:09:41.561Z,82.90
2023-01-01T22:12:14.768Z,82.80
2023-01-01T22:14:46.988Z,82.90
2023-01-01T22:17:32.046Z,83.00
2023-01-01T22:20:21.817Z,83.10
2023-01-01T22:22:49.505Z,83.10
2023-01-01T22:25:33.083Z,83.20
2023-01-01T22:28:30.582Z,83.40
2023-01-01T22:31:03.007Z,83.50
2023-01-01T22:33:38.986Z,83.60
2023-01-01T22:36:18.351Z,83.60
2023-01-01T22:38:45.802Z,83.50
2023-01-01T22:41:14.150Z,83.40
2023-01-01T22:43:43.472Z,83.30
2023-01-01T22:46:18.039Z,83.30
2023-01-01T22:48:44.970Z,83.30
2023-01-01T22:51:16.833Z,83.30
2023-01-01T22:53:44.229Z,83.30
2023-01-01T22:56:11.188Z,83.40
2023-01-01T22:58:38.123Z,83.40
2023-01-01T23:01:05.366Z,83.40
2023-01-01T23:03:32.543Z,83.40
2023-01-01T23:05:59.958Z,83.50
2023-01-01T23:08:27.282Z,83.40
2023-01-01T23:10:54.409Z,83.40
2023-01-01T23:13:40.145Z,83.50
2023-01-01T23:16:07.400Z,83.40
2023-01-01T23:18:36.222Z,83.50
2023-01-01T23:21:13.607Z,83.50
2023-01-01T23:23:41.357Z,83.60
2023-01-01T23:26:08.976Z,83.60
2023-01-01T23:28:36.895Z,83.70
2023-01-01T23:31:07.240Z,83.50
2023-01-01T23:33:34.632Z,83.60
2023-01-01T23:36:02.614Z,83.70
2023-01-01T23:38:31.872Z,83.70
2023-01-01T23:40:58.769Z,83.60
2023-01-01T23:43:25.818Z,83.70
2023-01-01T23:45:53.285Z,83.70
2023-01-01T23:48:20.525Z,83.70
2023-01-01T23:50:48.216Z,83.60
2023-01-01T23:53:15.352Z,83.50
2023-01-01T23:55:42.680Z,83.50
2023-01-01T23:58:09.726Z,83.50
